This is the latest recevied weather packets stored in our database for station/object SQ9NFI-4. If no packets are shown the sender has not sent any weather packets the latest 10 day(s).
| Time | Temp. | Humidity | Pressure | Rain* | Wind** | Luminosity | Snow |
|---|---|---|---|---|---|---|---|
| 1777785916 | 14.44° C | 64% | 1020 hPa | 0 mm | - | 135 W/m² | - |
| 1777785616 | 13.89° C | 69% | 1020 hPa | 0 mm | - | 122 W/m² | - |
| 1777785316 | 12.78° C | 63% | 1020 hPa | 0 mm | - | 109 W/m² | - |
| 1777785016 | 12.22° C | 67% | 1020 hPa | 0 mm | - | 99 W/m² | - |
| 1777784716 | 11.11° C | 70% | 1020 hPa | 0 mm | - | 89 W/m² | - |
| 1777784416 | 10.56° C | 74% | 1020 hPa | 0 mm | - | 81 W/m² | - |
| 1777784116 | 9.44° C | 76% | 1020 hPa | 0 mm | - | 74 W/m² | - |
| 1777783816 | 9.44° C | 82% | 1020 hPa | 0 mm | - | 67 W/m² | - |
| 1777783516 | 8.89° C | 79% | 1020 hPa | 0 mm | - | 60 W/m² | - |
| 1777783216 | 8.33° C | 84% | 1020 hPa | 0 mm | - | 54 W/m² | - |
| 1777782916 | 7.78° C | 86% | 1020 hPa | 0 mm | - | 50 W/m² | - |
| 1777782616 | 6.67° C | 94% | 1020 hPa | 0 mm | - | 44 W/m² | - |
| 1777782316 | 6.11° C | 97% | 1020 hPa | 0 mm | - | 41 W/m² | - |
| 1777782016 | 5.56° C | 98% | 1020 hPa | 0 mm | - | 37 W/m² | - |
| 1777781716 | 5.56° C | 98% | 1020 hPa | 0 mm | - | 33 W/m² | - |
| 1777781416 | 5° C | 98% | 1020 hPa | 0 mm | - | 30 W/m² | - |
| 1777781116 | 4.44° C | 98% | 1020 hPa | 0 mm | - | 26 W/m² | - |
| 1777780816 | 3.89° C | 98% | 1020 hPa | 0 mm | - | 23 W/m² | - |
| 1777780516 | 3.33° C | 98% | 1020 hPa | 0 mm | - | 19 W/m² | - |
| 1777780216 | 3.33° C | 98% | 1020 hPa | 0 mm | - | 17 W/m² | - |
| 1777779916 | 2.78° C | 98% | 1020 hPa | 0 mm | - | 13 W/m² | - |
| 1777779616 | 2.78° C | 98% | 1020 hPa | 0 mm | - | 11 W/m² | - |
| 1777779316 | 2.78° C | 98% | 1020 hPa | 0 mm | - | 9 W/m² | - |
| 1777779016 | 2.78° C | 98% | 1020 hPa | 0 mm | - | 7 W/m² | - |
| 1777778716 | 2.78° C | 97% | 1020 hPa | 0 mm | - | 5 W/m² | - |
* Rain latest hour (hover to see other rain measurements)
** Current wind speed in m/s (hover to see current wind gust speed)